Acme, Pennsylvania
Current Conditions -  °F | °C
As of 2:50 PM on Thursday 30 Oct 2014 (Local Time) from KLBE Reporting Station
Overcast Overcast  
Wind Chill: 44°   Ceiling: 4000
Heat Index: 48°   Visibility: 20mi
Dew Point: 39°   Wind: 9mph
Humidity: 71%   Direction: 260°W
Pressure: 30.08"   Gusts: NA
Location:  40.13°N, 79.43°W
Report Text: KLBE 301850Z 26008KT 20SM SCT030 OVC040 09/04 A3008
Loading
Personal Weather Stations






























Interactive Weather Map
Tropical Storm Tracking
New forecast layout! Learn more

10-Day Weather Forecast

Advertisements
Track Severe Weather on mobile